aviador You're here:

LZZI Decoded Metar

ZILINA in SLOVAKIA
Report Time2018-04-24 02:43:00
UTC Time2018-04-24 02:50:42
Flight Rules lifr LIFR
WindVRB at 01 kt
Visibility1400 m
Phenomena:Mist
Clouds:Overcast 002 Hf
Ceiling200 ft
Temp12°C (ISA -1)
Dew Point12°C (100% RH)
QNH1016 hPa
Density Alt994 ft
Elevation1,020 ft
Report Wrong Elevation
Raw Report
SPECI LZZI 240243Z VRB01KT 1400 R06/P2000N BR OVC002 12/12 Q1016=

Extra information for LZZI:More info

Metar Taf Metar & Taf Last 4 Metars F.Rules Stats Wind Profile Meteogram Temp Stats Airport Information Weather charts Add Link Nearby VenuesMetar ALERT Operation Metar Decoded Social comments